createdAt,value
2018-03-30T00:00:51.264Z,1.87
2018-03-30T00:06:55.882Z,1.93
2018-03-30T00:13:00.534Z,2.01
2018-03-30T00:19:04.961Z,2.06
2018-03-30T00:25:09.397Z,2.06
2018-03-30T00:31:13.868Z,2.20
2018-03-30T00:37:18.321Z,2.30
2018-03-30T00:43:22.777Z,2.31
2018-03-30T00:49:28.708Z,2.53
2018-03-30T00:55:33.144Z,2.58
2018-03-30T01:01:39.180Z,2.58
2018-03-30T01:07:43.629Z,2.80
2018-03-30T01:13:48.145Z,2.66
2018-03-30T01:19:52.621Z,2.73
2018-03-30T01:25:57.077Z,2.68
2018-03-30T01:32:02.308Z,2.69
2018-03-30T01:38:06.712Z,2.71
2018-03-30T01:44:11.144Z,2.55
2018-03-30T01:50:15.590Z,2.29
2018-03-30T01:56:20.062Z,2.35
2018-03-30T02:02:24.497Z,2.28
2018-03-30T02:08:28.938Z,2.22
2018-03-30T02:14:33.371Z,2.01
2018-03-30T02:20:37.848Z,1.94
2018-03-30T02:26:42.292Z,1.87
2018-03-30T02:32:46.732Z,1.87
2018-03-30T02:38:51.152Z,1.82
2018-03-30T02:44:55.592Z,1.75
2018-03-30T02:51:00.047Z,1.67
2018-03-30T02:57:04.473Z,1.73
2018-03-30T03:03:08.921Z,1.86
2018-03-30T03:09:13.373Z,1.93
2018-03-30T03:15:17.840Z,1.89
2018-03-30T03:21:22.297Z,1.77
2018-03-30T03:27:26.742Z,1.79
2018-03-30T03:33:31.180Z,1.87
2018-03-30T03:39:35.619Z,1.91
2018-03-30T03:45:40.047Z,1.95
2018-03-30T03:51:44.476Z,1.78
2018-03-30T03:57:48.932Z,1.75
2018-03-30T04:03:53.371Z,1.62
2018-03-30T04:09:57.828Z,1.69
2018-03-30T04:16:02.277Z,1.61
2018-03-30T04:22:06.723Z,1.59
2018-03-30T04:28:11.153Z,1.89
2018-03-30T04:34:15.613Z,1.78
2018-03-30T04:40:20.059Z,1.83
2018-03-30T04:46:24.492Z,1.89
2018-03-30T04:52:29.269Z,1.88
2018-03-30T04:58:34.473Z,1.94
2018-03-30T05:04:38.909Z,2.07
2018-03-30T05:10:43.341Z,2.13
2018-03-30T05:16:47.788Z,2.19
2018-03-30T05:22:52.231Z,2.20
2018-03-30T05:28:56.720Z,2.40
2018-03-30T05:35:01.156Z,2.51
2018-03-30T05:41:05.615Z,2.49
2018-03-30T05:47:10.133Z,2.63
2018-03-30T05:53:14.585Z,2.74
2018-03-30T05:59:19.044Z,2.89
2018-03-30T06:05:23.486Z,2.74
2018-03-30T06:11:27.955Z,2.88
2018-03-30T06:17:33.154Z,3.13
2018-03-30T06:23:37.591Z,3.40
2018-03-30T06:29:42.061Z,3.68
2018-03-30T06:35:46.502Z,3.81
2018-03-30T06:41:50.941Z,3.84
2018-03-30T06:47:55.439Z,4.06
2018-03-30T06:54:00.662Z,4.27
2018-03-30T07:00:05.095Z,4.32
2018-03-30T07:06:09.520Z,4.54
2018-03-30T07:12:13.953Z,4.79
2018-03-30T07:18:18.485Z,5.07
2018-03-30T07:24:23.692Z,5.24
2018-03-30T07:30:28.197Z,5.28
2018-03-30T07:36:32.655Z,5.35
2018-03-30T07:42:37.357Z,5.42
2018-03-30T07:48:42.584Z,5.70
2018-03-30T07:54:47.023Z,5.96
2018-03-30T08:00:51.477Z,6.90
2018-03-30T08:06:55.924Z,7.78
2018-03-30T08:13:00.408Z,7.78
2018-03-30T08:19:05.592Z,7.94
2018-03-30T08:25:10.087Z,8.57
2018-03-30T08:31:14.510Z,9.26
2018-03-30T08:37:18.962Z,10.01
2018-03-30T08:43:23.445Z,10.33
2018-03-30T08:49:27.875Z,10.87
2018-03-30T08:55:33.077Z,12.25
2018-03-30T09:01:37.528Z,13.78
2018-03-30T09:07:42.748Z,15.22
2018-03-30T09:13:47.204Z,16.46
2018-03-30T09:19:51.662Z,16.35
2018-03-30T09:25:56.103Z,17.48
2018-03-30T09:32:00.584Z,19.10
2018-03-30T09:38:05.052Z,20.45
2018-03-30T09:44:10.292Z,20.69
2018-03-30T09:50:14.756Z,22.90
2018-03-30T09:56:19.964Z,23.33
2018-03-30T10:02:29.304Z,25.63
2018-03-30T10:08:33.777Z,25.69
2018-03-30T10:14:38.261Z,27.96
2018-03-30T10:20:42.834Z,26.90
2018-03-30T10:26:47.282Z,25.78
2018-03-30T10:32:51.729Z,24.21
2018-03-30T10:38:56.199Z,24.52
2018-03-30T10:45:00.609Z,25.45
2018-03-30T10:51:05.057Z,24.93
2018-03-30T10:57:09.501Z,24.67
2018-03-30T11:03:14.111Z,25.28
2018-03-30T11:09:19.311Z,24.90
2018-03-30T11:15:23.839Z,24.88
2018-03-30T11:21:28.310Z,24.39
2018-03-30T11:27:32.741Z,25.28
2018-03-30T11:33:37.181Z,25.10
2018-03-30T11:39:41.621Z,26.65
2018-03-30T11:45:46.072Z,25.24
2018-03-30T11:51:50.538Z,26.91
2018-03-30T11:57:54.995Z,25.97
2018-03-30T12:03:59.449Z,27.06
2018-03-30T12:10:03.894Z,27.77
2018-03-30T12:16:08.345Z,25.95
2018-03-30T12:22:12.813Z,23.60
2018-03-30T12:28:17.288Z,24.14
2018-03-30T12:34:21.746Z,22.80
2018-03-30T12:40:26.212Z,23.15
2018-03-30T12:46:30.663Z,22.41
2018-03-30T12:52:35.889Z,22.70
2018-03-30T12:58:40.340Z,20.85
2018-03-30T13:04:44.803Z,21.68
2018-03-30T13:10:50.114Z,19.91
2018-03-30T13:16:54.635Z,19.14
2018-03-30T13:22:59.847Z,19.73
2018-03-30T13:29:04.355Z,19.05
2018-03-30T13:35:08.815Z,18.34
2018-03-30T13:41:13.276Z,18.19
2018-03-30T13:47:17.736Z,17.52
2018-03-30T13:53:37.617Z,17.61
2018-03-30T13:59:45.378Z,17.71
2018-03-30T14:06:06.825Z,17.37
2018-03-30T14:12:17.639Z,17.47
2018-03-30T14:18:33.779Z,17.33
2018-03-30T14:24:40.131Z,17.15
2018-03-30T14:30:50.849Z,16.63
2018-03-30T14:37:04.397Z,16.83
2018-03-30T14:43:21.881Z,17.35
2018-03-30T14:49:31.009Z,17.44
2018-03-30T14:55:49.661Z,17.23
2018-03-30T15:02:00.244Z,16.48
2018-03-30T15:14:41.309Z,15.69
2018-03-30T15:20:51.019Z,15.58
2018-03-30T15:27:04.282Z,15.46
2018-03-30T15:50:23.003Z,15.01
2018-03-30T15:56:28.836Z,15.69
2018-03-30T16:02:33.328Z,15.78
2018-03-30T16:08:37.948Z,15.54
2018-03-30T16:14:43.324Z,14.94
2018-03-30T16:20:46.973Z,14.67
2018-03-30T16:26:50.631Z,14.13
2018-03-30T16:32:54.300Z,13.78
2018-03-30T16:38:58.152Z,13.59
2018-03-30T16:45:02.385Z,13.63
2018-03-30T16:51:05.688Z,13.29
2018-03-30T16:57:09.159Z,13.18
2018-03-30T17:03:12.455Z,13.07
2018-03-30T17:09:15.751Z,12.90
2018-03-30T17:15:19.079Z,12.65
2018-03-30T17:21:22.408Z,12.36
2018-03-30T17:27:25.807Z,12.16
2018-03-30T17:33:29.562Z,11.95
2018-03-30T17:39:34.495Z,11.68
2018-03-30T17:45:37.941Z,11.42
2018-03-30T17:51:41.275Z,11.12
2018-03-30T17:57:44.921Z,10.71
2018-03-30T18:03:48.247Z,10.84
2018-03-30T18:09:51.534Z,10.56
2018-03-30T18:15:54.916Z,10.43
2018-03-30T18:21:58.212Z,10.27
2018-03-30T18:28:01.552Z,10.31
2018-03-30T18:34:04.888Z,10.14
2018-03-30T18:40:08.948Z,10.13
2018-03-30T18:46:13.167Z,10.02
2018-03-30T18:52:16.485Z,10.12
2018-03-30T18:58:19.857Z,10.03
2018-03-30T19:04:23.184Z,10.20
2018-03-30T19:10:26.802Z,10.34
2018-03-30T19:16:30.999Z,10.30
2018-03-30T19:22:35.054Z,10.35
2018-03-30T19:28:38.635Z,10.46
2018-03-30T19:34:42.691Z,10.57
2018-03-30T19:40:46.967Z,10.60
2018-03-30T19:46:50.275Z,10.67
2018-03-30T19:52:53.716Z,10.63
2018-03-30T19:58:57.659Z,10.76
2018-03-30T20:05:00.983Z,10.84
2018-03-30T20:11:05.047Z,10.96
2018-03-30T20:17:09.398Z,11.05
2018-03-30T20:23:12.726Z,11.03
2018-03-30T20:29:16.000Z,11.08
2018-03-30T20:35:19.380Z,10.91
2018-03-30T20:41:22.980Z,10.86
2018-03-30T20:47:26.851Z,10.71
2018-03-30T20:53:31.001Z,10.59
2018-03-30T20:59:34.401Z,10.71
2018-03-30T21:05:37.694Z,10.61
2018-03-30T21:11:40.979Z,10.57
2018-03-30T21:17:44.279Z,10.54
2018-03-30T21:23:47.583Z,10.38
2018-03-30T21:29:50.981Z,10.32
2018-03-30T21:35:54.303Z,10.22
2018-03-30T21:41:57.662Z,10.02
2018-03-30T21:48:01.741Z,9.93
2018-03-30T21:54:05.843Z,9.96
2018-03-30T22:00:09.187Z,9.73
2018-03-30T22:06:12.528Z,9.63
2018-03-30T22:12:15.815Z,9.60
2018-03-30T22:18:19.178Z,9.55
2018-03-30T22:24:22.581Z,9.66
2018-03-30T22:30:26.219Z,9.67
2018-03-30T22:36:29.717Z,9.69
2018-03-30T22:42:33.088Z,9.73
2018-03-30T22:48:36.380Z,9.72
2018-03-30T22:54:39.776Z,9.62
2018-03-30T23:00:43.116Z,9.60
2018-03-30T23:06:46.443Z,9.57
2018-03-30T23:12:50.076Z,9.53
2018-03-30T23:18:53.733Z,9.51
2018-03-30T23:24:58.103Z,9.67
2018-03-30T23:31:01.900Z,9.60
2018-03-30T23:37:05.526Z,9.57
2018-03-30T23:43:09.211Z,9.59
2018-03-30T23:49:12.884Z,9.42
2018-03-30T23:55:16.539Z,9.31
